createdAt,value
2023-04-25T00:01:52.402Z,1.83
2023-04-25T00:04:23.006Z,2.00
2023-04-25T00:06:51.440Z,1.40
2023-04-25T00:09:19.685Z,1.30
2023-04-25T00:11:47.905Z,1.08
2023-04-25T00:14:17.764Z,1.17
2023-04-25T00:16:46.054Z,1.20
2023-04-25T00:19:14.725Z,1.13
2023-04-25T00:21:43.083Z,1.35
2023-04-25T00:24:11.287Z,1.50
2023-04-25T00:26:39.584Z,1.40
2023-04-25T00:29:07.763Z,1.90
2023-04-25T00:31:36.071Z,1.80
2023-04-25T00:34:04.333Z,1.60
2023-04-25T00:36:32.809Z,2.15
2023-04-25T00:39:01.156Z,2.22
2023-04-25T00:41:31.212Z,1.75
2023-04-25T00:44:00.610Z,1.50
2023-04-25T00:46:28.880Z,1.67
2023-04-25T00:48:57.505Z,1.60
2023-04-25T00:51:27.932Z,1.10
2023-04-25T00:53:56.418Z,1.20
2023-04-25T00:56:24.680Z,1.40
2023-04-25T00:58:56.624Z,0.93
2023-04-25T01:01:25.065Z,0.80
2023-04-25T01:03:56.757Z,0.60
2023-04-25T01:06:25.375Z,0.80
2023-04-25T01:08:54.065Z,0.80
2023-04-25T01:11:22.801Z,0.60
2023-04-25T01:13:51.669Z,0.70
2023-04-25T01:16:20.283Z,0.88
2023-04-25T01:18:49.512Z,0.75
2023-04-25T01:21:18.544Z,0.77
2023-04-25T01:23:49.582Z,0.77
2023-04-25T01:26:18.298Z,0.50
2023-04-25T01:28:46.815Z,0.80
2023-04-25T01:31:16.508Z,0.88
2023-04-25T01:33:46.344Z,0.73
2023-04-25T01:36:15.669Z,1.02
2023-04-25T01:38:45.090Z,0.73
2023-04-25T01:41:13.521Z,0.60
2023-04-25T01:43:42.072Z,0.77
2023-04-25T01:46:10.429Z,0.70
2023-04-25T01:48:38.768Z,0.68
2023-04-25T01:51:07.305Z,0.82
2023-04-25T01:53:35.777Z,0.60
2023-04-25T01:56:05.911Z,0.60
2023-04-25T01:58:36.615Z,0.80
2023-04-25T02:01:05.067Z,0.55
2023-04-25T02:03:41.476Z,0.50
2023-04-25T02:06:16.751Z,0.43
2023-04-25T02:08:47.617Z,0.40
2023-04-25T02:11:18.074Z,0.65
2023-04-25T02:14:09.157Z,0.45
2023-04-25T02:16:45.788Z,0.50
2023-04-25T02:19:14.390Z,0.60
2023-04-25T02:21:42.642Z,0.52
2023-04-25T02:24:13.024Z,0.40
2023-04-25T02:26:41.295Z,0.40
2023-04-25T02:29:11.383Z,0.40
2023-04-25T02:31:39.683Z,0.45
2023-04-25T02:34:08.005Z,0.40
2023-04-25T02:36:38.596Z,0.40
2023-04-25T02:39:06.985Z,0.38
2023-04-25T02:41:36.161Z,0.50
2023-04-25T02:44:04.455Z,0.90
2023-04-25T02:49:07.039Z,0.60
2023-04-25T02:51:36.307Z,0.90
2023-04-25T02:54:04.902Z,0.60
2023-04-25T02:56:37.158Z,0.60
2023-04-25T02:59:15.436Z,0.57
2023-04-25T03:01:43.773Z,0.70
2023-04-25T03:04:12.115Z,0.50
2023-04-25T03:06:40.530Z,0.90
2023-04-25T03:09:08.855Z,0.52
2023-04-25T03:11:38.332Z,0.60
2023-04-25T03:14:06.877Z,0.60
2023-04-25T03:16:36.087Z,0.73
2023-04-25T03:19:05.068Z,0.88
2023-04-25T03:21:36.346Z,1.95
2023-04-25T03:24:05.617Z,0.75
2023-04-25T03:26:33.992Z,0.80
2023-04-25T03:29:02.281Z,1.10
2023-04-25T03:31:31.563Z,0.90
2023-04-25T03:34:00.109Z,0.80
2023-04-25T03:36:28.639Z,0.80
2023-04-25T03:38:57.002Z,0.85
2023-04-25T03:41:26.137Z,1.20
2023-04-25T03:44:02.616Z,1.00
2023-04-25T03:46:31.082Z,1.10
2023-04-25T03:49:00.324Z,1.15
2023-04-25T03:51:41.595Z,1.30
2023-04-25T03:54:09.870Z,1.13
2023-04-25T03:57:01.224Z,1.10
2023-04-25T03:59:31.444Z,1.40
2023-04-25T04:01:59.746Z,1.42
2023-04-25T04:04:28.642Z,1.52
2023-04-25T04:06:57.249Z,1.20
2023-04-25T04:09:28.766Z,1.00
2023-04-25T04:11:58.747Z,1.13
2023-04-25T04:14:26.989Z,1.00
2023-04-25T04:16:57.167Z,1.27
2023-04-25T04:19:27.097Z,0.60
2023-04-25T04:22:05.549Z,0.60
2023-04-25T04:24:34.178Z,0.65
2023-04-25T04:27:06.859Z,0.52
2023-04-25T04:32:54.428Z,0.43
2023-04-25T04:35:24.549Z,0.50
2023-04-25T04:37:53.436Z,0.50
2023-04-25T04:40:23.274Z,0.55
2023-04-25T04:43:03.503Z,0.57
2023-04-25T04:45:51.059Z,0.60
2023-04-25T04:48:38.190Z,0.77
2023-04-25T04:51:32.861Z,0.38
2023-04-25T04:54:29.871Z,0.40
2023-04-25T04:57:21.109Z,0.30
2023-04-25T05:00:13.360Z,0.40
2023-04-25T05:02:55.000Z,0.40
2023-04-25T05:05:46.987Z,0.30
2023-04-25T05:08:33.977Z,0.50
2023-04-25T05:11:11.506Z,1.70
2023-04-25T05:13:54.743Z,1.92
2023-04-25T05:16:44.724Z,2.78
2023-04-25T05:19:42.604Z,3.17
2023-04-25T05:22:36.602Z,2.50
2023-04-25T05:25:18.400Z,2.00
2023-04-25T05:28:07.924Z,1.90
2023-04-25T05:30:49.813Z,2.17
2023-04-25T05:33:30.693Z,2.42
2023-04-25T05:35:58.987Z,1.83
2023-04-25T05:38:28.169Z,2.72
2023-04-25T05:41:08.598Z,2.10
2023-04-25T05:43:58.118Z,1.98
2023-04-25T05:46:31.375Z,1.60
2023-04-25T05:49:35.854Z,1.60
2023-04-25T05:52:21.806Z,1.50
2023-04-25T05:55:03.661Z,1.52
2023-04-25T05:57:33.181Z,1.27
2023-04-25T06:00:02.427Z,1.20
2023-04-25T06:02:43.134Z,1.08
2023-04-25T06:05:15.973Z,1.00
2023-04-25T06:07:44.754Z,1.10
2023-04-25T06:10:13.025Z,0.90
2023-04-25T06:12:41.300Z,0.90
2023-04-25T06:15:26.664Z,0.65
2023-04-25T06:17:57.383Z,0.80
2023-04-25T06:20:26.187Z,0.80
2023-04-25T06:22:57.118Z,1.00
2023-04-25T06:25:48.246Z,0.77
2023-04-25T06:28:16.504Z,0.70
2023-04-25T06:30:46.125Z,0.80
2023-04-25T06:33:18.983Z,0.90
2023-04-25T06:35:47.698Z,0.80
2023-04-25T06:38:19.319Z,1.05
2023-04-25T06:40:51.038Z,0.82
2023-04-25T06:43:20.136Z,0.70
2023-04-25T06:46:27.746Z,1.25
2023-04-25T06:48:57.216Z,1.10
2023-04-25T06:51:29.413Z,0.80
2023-04-25T06:53:58.041Z,0.75
2023-04-25T06:56:39.944Z,0.93
2023-04-25T06:59:15.008Z,0.80
2023-04-25T07:01:45.020Z,1.15
2023-04-25T07:04:18.204Z,0.70
2023-04-25T07:06:51.556Z,2.03
2023-04-25T07:09:24.449Z,1.17
2023-04-25T07:11:53.590Z,0.88
2023-04-25T07:14:21.839Z,0.80
2023-04-25T07:16:50.769Z,0.60
2023-04-25T07:19:19.340Z,0.82
2023-04-25T07:21:48.081Z,0.82
2023-04-25T07:24:16.393Z,1.00
2023-04-25T07:26:48.100Z,0.90
2023-04-25T07:29:32.865Z,0.82
2023-04-25T07:32:02.410Z,0.90
2023-04-25T07:34:31.445Z,0.77
2023-04-25T07:37:00.532Z,0.88
2023-04-25T07:39:36.142Z,0.80
2023-04-25T07:42:05.114Z,0.73
2023-04-25T07:44:39.301Z,0.80
2023-04-25T07:47:10.040Z,0.80
2023-04-25T07:49:39.192Z,0.82
2023-04-25T07:52:07.986Z,0.90
2023-04-25T07:54:38.050Z,0.82
2023-04-25T07:57:15.098Z,0.50
2023-04-25T07:59:43.821Z,0.77
2023-04-25T08:02:12.413Z,0.65
2023-04-25T08:04:41.694Z,0.80
2023-04-25T08:07:11.960Z,0.60
2023-04-25T08:09:49.444Z,0.80
2023-04-25T08:12:26.036Z,0.47
2023-04-25T08:14:54.864Z,0.65
2023-04-25T08:17:25.662Z,0.50
2023-04-25T08:19:54.204Z,0.50
2023-04-25T08:22:31.991Z,0.63
2023-04-25T08:25:16.217Z,0.90
2023-04-25T08:27:45.236Z,1.63
2023-04-25T08:30:14.013Z,0.70
2023-04-25T08:32:43.962Z,0.50
2023-04-25T08:35:34.330Z,0.80
2023-04-25T08:38:03.341Z,0.80
2023-04-25T08:40:39.064Z,0.57
2023-04-25T08:43:15.999Z,0.43
2023-04-25T08:45:45.015Z,0.50
2023-04-25T08:48:20.383Z,0.40
2023-04-25T08:50:53.666Z,0.50
2023-04-25T08:53:28.534Z,0.60
2023-04-25T08:56:02.514Z,1.50
2023-04-25T08:58:31.610Z,2.10
2023-04-25T09:01:01.122Z,0.60
2023-04-25T09:03:33.086Z,0.63
2023-04-25T09:06:01.517Z,0.68
2023-04-25T09:08:29.851Z,0.47
2023-04-25T09:10:58.638Z,0.40
2023-04-25T09:13:29.052Z,0.40
2023-04-25T09:16:33.702Z,0.50
2023-04-25T09:19:41.159Z,0.77
2023-04-25T09:22:22.760Z,0.43
2023-04-25T09:27:28.086Z,0.40
2023-04-25T09:30:20.423Z,0.60
2023-04-25T09:33:11.703Z,0.70
2023-04-25T09:35:45.239Z,0.50
2023-04-25T09:38:22.454Z,0.47
2023-04-25T09:41:04.092Z,0.40
2023-04-25T09:43:50.118Z,0.88
2023-04-25T09:46:19.960Z,0.50
2023-04-25T09:48:54.881Z,0.60
2023-04-25T09:51:38.532Z,0.50
2023-04-25T09:54:08.722Z,0.70
2023-04-25T09:56:49.409Z,0.70
2023-04-25T09:59:20.072Z,0.52
2023-04-25T10:01:51.424Z,0.55
2023-04-25T10:04:34.534Z,0.50
2023-04-25T10:07:10.910Z,1.15
2023-04-25T10:09:40.897Z,0.65
2023-04-25T10:12:09.908Z,0.52
2023-04-25T10:14:38.594Z,0.85
2023-04-25T10:17:07.146Z,0.43
2023-04-25T10:19:35.529Z,0.50
2023-04-25T10:22:12.724Z,0.80
2023-04-25T10:24:41.804Z,0.50
2023-04-25T10:27:10.403Z,0.70
2023-04-25T10:29:38.950Z,0.63
2023-04-25T10:32:07.228Z,0.50
2023-04-25T10:34:43.536Z,0.70
2023-04-25T10:37:12.555Z,0.70
2023-04-25T10:39:42.542Z,0.75
2023-04-25T10:42:11.104Z,1.23
2023-04-25T10:44:42.389Z,0.60
2023-04-25T10:47:11.085Z,0.57
2023-04-25T10:49:43.431Z,0.45
2023-04-25T10:52:29.362Z,0.55
2023-04-25T10:54:59.255Z,0.60
2023-04-25T10:57:45.187Z,0.47
2023-04-25T11:00:16.569Z,0.40
2023-04-25T11:02:47.927Z,0.70
2023-04-25T11:05:23.019Z,0.50
2023-04-25T11:08:04.013Z,0.55
2023-04-25T11:10:39.065Z,0.70
2023-04-25T11:13:07.587Z,0.50
2023-04-25T11:15:35.899Z,0.47
2023-04-25T11:18:04.837Z,0.82
2023-04-25T11:20:33.121Z,0.70
2023-04-25T11:23:01.669Z,1.00
2023-04-25T11:25:30.734Z,0.63
2023-04-25T11:28:01.540Z,0.68
2023-04-25T11:30:31.719Z,0.70
2023-04-25T11:33:00.397Z,0.70
2023-04-25T11:35:28.797Z,0.85
2023-04-25T11:37:57.060Z,0.80
2023-04-25T11:40:25.648Z,1.00
2023-04-25T11:42:54.964Z,0.90
2023-04-25T11:45:24.786Z,1.00
2023-04-25T11:47:53.893Z,0.80
2023-04-25T11:50:22.325Z,0.90
2023-04-25T11:52:51.322Z,0.80
2023-04-25T11:55:21.346Z,0.90
2023-04-25T11:57:53.939Z,0.70
2023-04-25T12:00:23.579Z,0.77
2023-04-25T12:02:56.000Z,0.80
2023-04-25T12:05:33.234Z,0.90
2023-04-25T12:08:15.676Z,1.60
2023-04-25T12:10:46.385Z,0.80
2023-04-25T12:13:26.360Z,1.00
2023-04-25T12:15:57.560Z,0.95
2023-04-25T12:18:28.877Z,1.00
2023-04-25T12:20:57.422Z,0.90
2023-04-25T12:23:29.696Z,1.02
2023-04-25T12:25:58.836Z,0.80
2023-04-25T12:28:32.808Z,0.88
2023-04-25T12:31:06.050Z,0.80
2023-04-25T12:36:09.691Z,0.80
2023-04-25T12:38:40.392Z,0.95
2023-04-25T12:41:09.448Z,1.00
2023-04-25T12:43:37.726Z,0.77
2023-04-25T12:46:06.148Z,1.08
2023-04-25T12:48:34.496Z,0.82
2023-04-25T12:51:02.724Z,0.98
2023-04-25T12:53:32.277Z,0.85
2023-04-25T12:56:01.433Z,1.10
2023-04-25T12:58:29.670Z,1.02
2023-04-25T13:00:57.942Z,1.40
2023-04-25T13:03:26.862Z,0.80
2023-04-25T13:05:56.910Z,0.90
2023-04-25T13:08:25.148Z,0.98
2023-04-25T13:10:53.335Z,1.13
2023-04-25T13:13:21.588Z,1.00
2023-04-25T13:15:49.997Z,1.10
2023-04-25T13:18:18.314Z,0.90
2023-04-25T13:20:47.398Z,1.25
2023-04-25T13:23:15.761Z,1.10
2023-04-25T13:25:44.133Z,1.25
2023-04-25T13:28:12.388Z,1.10
2023-04-25T13:30:41.015Z,1.35
2023-04-25T13:33:09.397Z,1.17
2023-04-25T13:35:38.690Z,1.15
2023-04-25T13:38:06.965Z,1.35
2023-04-25T13:40:35.886Z,1.30
2023-04-25T13:43:04.211Z,1.08
2023-04-25T13:45:33.724Z,1.45
2023-04-25T13:48:02.530Z,1.85
2023-04-25T13:50:31.275Z,1.30
2023-04-25T13:52:59.478Z,1.20
2023-04-25T13:55:28.366Z,1.13
2023-04-25T13:57:56.551Z,1.00
2023-04-25T14:00:24.888Z,1.45
2023-04-25T14:02:53.221Z,1.63
2023-04-25T14:05:21.527Z,2.53
2023-04-25T14:07:49.875Z,2.00
2023-04-25T14:10:18.117Z,1.80
2023-04-25T14:12:46.656Z,1.15
2023-04-25T14:15:15.029Z,1.33
2023-04-25T14:17:43.302Z,1.42
2023-04-25T14:20:12.583Z,1.42
2023-04-25T14:22:44.029Z,1.38
2023-04-25T14:25:12.393Z,1.55
2023-04-25T14:27:40.575Z,1.73
2023-04-25T14:30:12.973Z,1.10
2023-04-25T14:32:41.419Z,1.60
2023-04-25T14:35:10.200Z,1.55
2023-04-25T14:37:38.572Z,1.52
2023-04-25T14:40:09.123Z,1.52
2023-04-25T14:42:38.052Z,2.17
2023-04-25T14:45:08.413Z,1.83
2023-04-25T14:47:37.812Z,1.70
2023-04-25T14:50:07.732Z,1.88
2023-04-25T14:52:36.253Z,1.90
2023-04-25T14:55:08.488Z,1.33
2023-04-25T14:57:37.112Z,1.25
2023-04-25T15:00:08.155Z,1.63
2023-04-25T15:02:38.507Z,1.50
2023-04-25T15:05:07.398Z,1.50
2023-04-25T15:07:35.721Z,1.60
2023-04-25T15:10:04.584Z,1.00
2023-04-25T15:12:35.567Z,1.42
2023-04-25T15:15:04.526Z,1.25
2023-04-25T15:17:32.992Z,1.23
2023-04-25T15:20:01.430Z,1.20
2023-04-25T15:22:29.893Z,1.40
2023-04-25T15:24:58.103Z,1.20
2023-04-25T15:27:28.107Z,1.10
2023-04-25T15:29:56.434Z,1.10
2023-04-25T15:32:24.827Z,1.42
2023-04-25T15:34:53.151Z,0.98
2023-04-25T15:37:21.354Z,1.20
2023-04-25T15:39:55.744Z,1.23
2023-04-25T15:42:24.624Z,1.40
2023-04-25T15:44:52.852Z,1.60
2023-04-25T15:47:21.030Z,1.48
2023-04-25T15:49:49.266Z,1.27
2023-04-25T15:52:21.906Z,1.55
2023-04-25T15:54:50.207Z,1.80
2023-04-25T15:57:18.439Z,1.65
2023-04-25T15:59:47.472Z,1.70
2023-04-25T16:02:16.437Z,1.40
2023-04-25T16:04:45.595Z,1.50
2023-04-25T16:07:15.021Z,1.52
2023-04-25T16:09:43.387Z,1.30
2023-04-25T16:12:12.558Z,1.90
2023-04-25T16:14:40.827Z,1.70
2023-04-25T16:17:09.014Z,1.60
2023-04-25T16:19:37.837Z,1.33
2023-04-25T16:22:06.785Z,1.40
2023-04-25T16:24:35.326Z,1.23
2023-04-25T16:27:03.941Z,1.48
2023-04-25T16:29:32.179Z,1.67
2023-04-25T16:32:00.538Z,1.40
2023-04-25T16:34:28.868Z,1.50
2023-04-25T16:36:57.971Z,1.70
2023-04-25T16:39:26.382Z,2.10
2023-04-25T16:41:54.723Z,1.50
2023-04-25T16:44:22.959Z,1.35
2023-04-25T16:46:51.301Z,1.27
2023-04-25T16:49:19.905Z,1.33
2023-04-25T16:51:48.202Z,1.33
2023-04-25T16:54:19.272Z,0.98
2023-04-25T16:56:47.571Z,1.17
2023-04-25T16:59:15.848Z,0.90
2023-04-25T17:01:44.202Z,1.13
2023-04-25T17:04:12.617Z,0.95
2023-04-25T17:06:41.064Z,1.40
2023-04-25T17:09:10.544Z,1.27
2023-04-25T17:11:38.853Z,0.90
2023-04-25T17:14:07.160Z,1.10
2023-04-25T17:16:38.946Z,1.65
2023-04-25T17:19:07.779Z,1.75
2023-04-25T17:21:36.089Z,2.00
2023-04-25T17:24:09.547Z,1.70
2023-04-25T17:26:38.177Z,1.77
2023-04-25T17:29:06.428Z,1.60
2023-04-25T17:31:34.822Z,1.70
2023-04-25T17:34:04.169Z,1.77
2023-04-25T17:36:32.740Z,1.55
2023-04-25T17:39:01.028Z,1.73
2023-04-25T17:41:29.332Z,1.65
2023-04-25T17:43:57.530Z,1.80
2023-04-25T17:46:27.542Z,1.90
2023-04-25T17:48:58.254Z,2.25
2023-04-25T17:51:26.776Z,2.50
2023-04-25T17:53:55.034Z,2.78
2023-04-25T17:56:27.136Z,2.90
2023-04-25T17:58:56.107Z,3.27
2023-04-25T18:01:24.550Z,2.53
2023-04-25T18:03:53.129Z,2.00
2023-04-25T18:06:21.506Z,2.03
2023-04-25T18:08:49.999Z,1.80
2023-04-25T18:11:18.633Z,2.53
2023-04-25T18:13:46.972Z,2.22
2023-04-25T18:16:16.001Z,1.85
2023-04-25T18:18:46.901Z,2.05
2023-04-25T18:21:15.162Z,2.33
2023-04-25T18:23:43.697Z,1.90
2023-04-25T18:26:12.263Z,2.20
2023-04-25T18:28:40.577Z,2.17
2023-04-25T18:31:09.521Z,1.80
2023-04-25T18:33:37.845Z,1.85
2023-04-25T18:36:06.521Z,2.35
2023-04-25T18:38:36.259Z,2.22
2023-04-25T18:41:20.531Z,2.30
2023-04-25T18:43:57.627Z,2.00
2023-04-25T18:46:26.169Z,2.33
2023-04-25T18:48:55.064Z,2.05
2023-04-25T18:51:24.706Z,2.53
2023-04-25T18:53:53.192Z,2.40
2023-04-25T18:56:22.936Z,2.38
2023-04-25T18:58:52.498Z,2.30
2023-04-25T19:01:22.304Z,1.90
2023-04-25T19:03:56.206Z,2.00
2023-04-25T19:06:30.669Z,2.22
2023-04-25T19:08:59.112Z,2.08
2023-04-25T19:11:27.363Z,2.55
2023-04-25T19:13:58.302Z,2.38
2023-04-25T19:16:27.532Z,2.70
2023-04-25T19:18:56.758Z,2.83
2023-04-25T19:21:24.980Z,2.70
2023-04-25T19:23:54.612Z,2.88
2023-04-25T19:26:23.995Z,3.08
2023-04-25T19:29:13.465Z,3.72
2023-04-25T19:31:43.250Z,3.05
2023-04-25T19:34:13.012Z,2.38
2023-04-25T19:36:42.686Z,3.00
2023-04-25T19:39:11.269Z,2.88
2023-04-25T19:41:39.818Z,2.88
2023-04-25T19:44:09.584Z,2.83
2023-04-25T19:46:38.426Z,2.85
2023-04-25T19:49:07.896Z,2.83
2023-04-25T19:51:37.377Z,2.63
2023-04-25T19:54:05.917Z,2.60
2023-04-25T19:56:34.245Z,2.80
2023-04-25T19:59:02.857Z,2.58
2023-04-25T20:01:31.281Z,2.88
2023-04-25T20:03:59.695Z,2.50
2023-04-25T20:06:29.131Z,3.03
2023-04-25T20:08:57.606Z,3.60
2023-04-25T20:11:29.180Z,3.13
2023-04-25T20:13:57.467Z,3.40
2023-04-25T20:16:26.106Z,3.42
2023-04-25T20:18:54.770Z,3.38
2023-04-25T20:21:23.937Z,3.40
2023-04-25T20:23:52.184Z,3.97
2023-04-25T20:26:22.692Z,3.17
2023-04-25T20:28:51.998Z,3.53
2023-04-25T20:31:21.007Z,3.67
2023-04-25T20:33:49.313Z,3.20
2023-04-25T20:36:19.386Z,3.28
2023-04-25T20:38:48.117Z,3.60
2023-04-25T20:41:16.451Z,3.08
2023-04-25T20:43:46.019Z,3.63
2023-04-25T20:46:18.859Z,3.45
2023-04-25T20:48:47.208Z,3.45
2023-04-25T20:51:15.545Z,3.30
2023-04-25T20:53:43.808Z,3.80
2023-04-25T20:56:12.941Z,2.95
2023-04-25T20:58:41.629Z,3.13
2023-04-25T21:01:09.987Z,3.15
2023-04-25T21:03:56.759Z,2.63
2023-04-25T21:06:25.353Z,4.65
2023-04-25T21:08:53.755Z,3.03
2023-04-25T21:11:23.518Z,3.13
2023-04-25T21:13:52.353Z,2.65
2023-04-25T21:16:21.295Z,3.03
2023-04-25T21:18:49.859Z,2.75
2023-04-25T21:21:18.249Z,3.05
2023-04-25T21:23:46.463Z,3.17
2023-04-25T21:26:14.735Z,2.80
2023-04-25T21:28:43.049Z,3.20
2023-04-25T21:31:11.358Z,2.85
2023-04-25T21:33:39.652Z,3.30
2023-04-25T21:36:08.198Z,3.55
2023-04-25T21:38:36.560Z,3.35
2023-04-25T21:41:05.488Z,3.72
2023-04-25T21:43:33.745Z,3.15
2023-04-25T21:48:33.932Z,3.80
2023-04-25T21:51:02.212Z,3.20
2023-04-25T21:53:31.536Z,3.47
2023-04-25T21:55:59.851Z,3.17
2023-04-25T21:58:28.018Z,4.03
2023-04-25T22:00:56.315Z,3.67
2023-04-25T22:03:24.584Z,3.65
2023-04-25T22:05:53.010Z,3.28
2023-04-25T22:08:21.206Z,3.35
2023-04-25T22:10:49.437Z,3.25
2023-04-25T22:13:17.630Z,3.40
2023-04-25T22:15:45.959Z,3.30
2023-04-25T22:18:14.490Z,3.53
2023-04-25T22:20:44.383Z,3.47
2023-04-25T22:23:12.650Z,3.55
2023-04-25T22:25:42.150Z,3.65
2023-04-25T22:28:12.582Z,3.70
2023-04-25T22:30:40.855Z,3.65
2023-04-25T22:33:09.257Z,3.65
2023-04-25T22:35:37.447Z,3.47
2023-04-25T22:38:05.657Z,3.38
2023-04-25T22:40:33.967Z,3.17
2023-04-25T22:43:02.201Z,3.67
2023-04-25T22:45:30.527Z,2.10
2023-04-25T22:47:58.876Z,2.00
2023-04-25T22:50:27.912Z,1.80
2023-04-25T22:52:56.189Z,2.38
2023-04-25T22:55:24.670Z,1.75
2023-04-25T22:57:53.297Z,1.58
2023-04-25T23:00:21.952Z,1.95
2023-04-25T23:02:51.080Z,1.70
2023-04-25T23:05:38.053Z,1.60
2023-04-25T23:08:06.328Z,1.55
2023-04-25T23:10:35.195Z,2.10
2023-04-25T23:13:03.898Z,1.50
2023-04-25T23:15:32.556Z,2.10
2023-04-25T23:18:01.087Z,2.83
2023-04-25T23:20:29.696Z,2.83
2023-04-25T23:22:58.276Z,3.15
2023-04-25T23:25:29.525Z,3.30
2023-04-25T23:27:58.078Z,3.42
2023-04-25T23:30:26.254Z,3.42
2023-04-25T23:32:54.478Z,2.72
2023-04-25T23:35:22.840Z,2.80
2023-04-25T23:37:51.162Z,3.75
2023-04-25T23:40:19.382Z,3.08
2023-04-25T23:42:47.898Z,3.20
2023-04-25T23:45:16.690Z,3.50
2023-04-25T23:47:45.068Z,3.40
2023-04-25T23:50:13.427Z,2.78
2023-04-25T23:52:41.881Z,2.22
2023-04-25T23:55:10.754Z,2.35
2023-04-25T23:57:39.050Z,2.00
